Robertsdale, Indiana
Current Conditions -  °F | °C
As of 6:45 PM on Sunday 23 Nov 2014 (Local Time) from KGYY Reporting Station
Light Rain Light Rain  
Wind Chill: 52°   Ceiling: 700
Heat Index: 52°   Visibility: 5mi
Dew Point: 50°   Wind: 14mph
Humidity: 94%   Direction: 130°SE
Pressure: 29.33"   Gusts: NA
Location:  41.6768°N, 87.5007°W
Report Text: KGYY 240045Z 13012KT 5SM -RA BKN007 OVC022 11/10 A2933 RMK PRESFR
Loading
Personal Weather Stations






























Interactive Weather Map New forecast layout! Learn more

10-Day Weather Forecast

Advertisements
Track Severe Weather on mobile